Time;durP1;ratioP1;P1;durP2;ratioP2;P2;SDS_P1;SDS_P2;PMS_P1;PMS_P2;Temp;Humidity;BMP_temperature;BMP_pressure;BME280_temperature;BME280_humidity;BME280_pressure;Samples;Min_cycle;Max_cycle;Signal;HPM_P1;HPM_P2
2023/10/28 00:00:00;;;;;;;0.30;0.30;;;9.10;99.90;;;;;;5094463;28;20444;-80
2023/10/28 00:02:28;;;;;;;0.50;0.37;;;9.20;99.90;;;;;;5093989;28;20483;-80
2023/10/28 00:04:55;;;;;;;0.30;0.30;;;9.20;99.90;;;;;;5094280;28;20479;-80
2023/10/28 00:07:22;;;;;;;0.30;0.30;;;9.20;99.90;;;;;;5093234;28;21008;-79
2023/10/28 00:09:48;;;;;;;0.90;0.27;;;9.20;99.90;;;;;;5093969;28;20451;-80
2023/10/28 00:12:15;;;;;;;4.10;0.50;;;9.10;99.90;;;;;;5094212;28;20451;-80
2023/10/28 00:14:42;;;;;;;0.30;0.30;;;9.10;99.90;;;;;;5093775;28;20977;-80
2023/10/28 00:17:09;;;;;;;0.30;0.20;;;9.10;99.90;;;;;;5093861;28;20933;-80
2023/10/28 00:19:37;;;;;;;0.33;0.30;;;9.10;99.90;;;;;;5093905;28;20436;-80
2023/10/28 00:22:04;;;;;;;0.30;0.27;;;9.10;99.90;;;;;;5094028;28;20444;-80
2023/10/28 00:24:31;;;;;;;0.30;0.30;;;9.10;99.90;;;;;;5093961;28;20464;-80
2023/10/28 00:26:58;;;;;;;0.30;0.30;;;9.20;99.90;;;;;;5093894;28;20898;-80
2023/10/28 00:29:24;;;;;;;0.30;0.30;;;9.10;99.90;;;;;;5093929;28;20451;-80
2023/10/28 00:31:51;;;;;;;0.50;0.30;;;9.10;99.90;;;;;;5093999;28;20443;-80
2023/10/28 00:34:18;;;;;;;0.30;0.30;;;9.10;99.90;;;;;;5093815;28;20533;-80
2023/10/28 00:36:46;;;;;;;1.07;0.30;;;9.20;99.90;;;;;;5093793;28;20451;-79
2023/10/28 00:39:13;;;;;;;0.30;0.20;;;9.20;99.90;;;;;;5093765;28;20448;-80
2023/10/28 00:41:40;;;;;;;0.30;0.30;;;9.20;99.90;;;;;;5093733;28;20487;-80
2023/10/28 00:44:08;;;;;;;0.40;0.30;;;9.20;99.90;;;;;;5093628;28;20468;-80
2023/10/28 00:46:34;;;;;;;0.30;0.30;;;9.20;99.90;;;;;;5093377;28;20940;-80
2023/10/28 00:49:01;;;;;;;0.60;0.33;;;9.10;99.90;;;;;;5093299;28;20487;-80
2023/10/28 00:51:29;;;;;;;0.30;0.30;;;9.10;99.90;;;;;;5093591;28;20538;-80
2023/10/28 00:53:58;;;;;;;0.30;0.20;;;9.10;99.90;;;;;;5093511;28;20460;-80
2023/10/28 00:56:24;;;;;;;8.23;0.40;;;9.10;99.90;;;;;;5093583;28;20494;-79
2023/10/28 00:58:53;;;;;;;1.13;0.30;;;9.10;99.90;;;;;;5093517;28;20448;-80
2023/10/28 01:01:21;;;;;;;0.30;0.30;;;9.10;99.90;;;;;;5093326;28;20567;-80
2023/10/28 01:03:48;;;;;;;0.83;0.30;;;9.10;99.90;;;;;;5093710;28;20832;-80
2023/10/28 01:06:16;;;;;;;1.93;0.30;;;9.10;99.90;;;;;;5093105;28;20482;-80
2023/10/28 01:08:43;;;;;;;0.60;0.37;;;9.10;99.90;;;;;;5092975;28;20490;-80
2023/10/28 01:11:12;;;;;;;3.30;0.30;;;9.10;99.90;;;;;;5093394;28;20447;-80
2023/10/28 01:13:39;;;;;;;0.30;0.30;;;9.00;99.90;;;;;;5093303;28;20468;-80
2023/10/28 01:16:08;;;;;;;0.43;0.40;;;9.10;99.90;;;;;;5093335;28;20444;-80
2023/10/28 01:18:35;;;;;;;0.30;0.30;;;9.10;99.90;;;;;;5095401;28;20489;-80
2023/10/28 01:21:09;;;;;;;0.40;0.30;;;9.00;99.90;;;;;;5097580;28;20440;-80
2023/10/28 01:23:36;;;;;;;0.30;0.20;;;9.00;99.90;;;;;;5097144;28;20473;-80
2023/10/28 01:26:03;;;;;;;0.30;0.30;;;8.90;99.90;;;;;;5097432;28;20452;-80
2023/10/28 01:28:30;;;;;;;0.40;0.30;;;9.00;99.90;;;;;;5097339;28;20483;-80
2023/10/28 01:30:57;;;;;;;0.30;0.30;;;9.00;99.90;;;;;;5097366;28;20505;-80
2023/10/28 01:33:24;;;;;;;0.30;0.30;;;9.00;99.90;;;;;;5097248;28;20466;-80
2023/10/28 01:35:51;;;;;;;0.40;0.40;;;9.00;99.90;;;;;;5096973;28;20967;-80
2023/10/28 01:38:19;;;;;;;1.33;0.30;;;9.10;99.90;;;;;;5097204;28;20497;-80
2023/10/28 01:40:45;;;;;;;0.30;0.30;;;9.10;99.90;;;;;;5097200;28;20822;-80
2023/10/28 01:43:14;;;;;;;0.80;0.43;;;9.00;99.90;;;;;;5096797;28;20466;-80
2023/10/28 01:45:41;;;;;;;0.30;0.30;;;9.10;99.90;;;;;;5096737;28;20440;-80
2023/10/28 01:48:07;;;;;;;0.30;0.30;;;9.10;99.90;;;;;;5096961;28;20545;-80
2023/10/28 01:50:34;;;;;;;0.30;0.30;;;9.10;99.90;;;;;;5096995;28;20472;-80
2023/10/28 01:53:01;;;;;;;0.30;0.30;;;9.10;99.90;;;;;;5096866;28;20450;-80
2023/10/28 01:55:29;;;;;;;0.30;0.20;;;9.10;99.90;;;;;;5096575;28;20444;-80
2023/10/28 01:57:55;;;;;;;0.50;0.40;;;9.10;99.90;;;;;;5096598;28;20431;-80
2023/10/28 02:00:22;;;;;;;0.50;0.30;;;9.10;99.90;;;;;;5096751;28;20444;-80
2023/10/28 02:02:50;;;;;;;0.40;0.40;;;9.10;99.90;;;;;;5096214;28;20471;-80
2023/10/28 02:05:18;;;;;;;0.30;0.20;;;9.10;99.90;;;;;;5096684;28;20444;-80
2023/10/28 02:07:45;;;;;;;0.40;0.30;;;9.10;99.90;;;;;;5096187;28;20483;-80
2023/10/28 02:10:12;;;;;;;0.57;0.30;;;9.10;99.90;;;;;;5096309;28;20887;-80
2023/10/28 02:12:41;;;;;;;0.50;0.30;;;9.10;99.90;;;;;;5096560;28;20440;-80
2023/10/28 02:15:09;;;;;;;0.30;0.30;;;9.10;99.90;;;;;;5096552;28;20443;-80
2023/10/28 02:17:36;;;;;;;0.50;0.40;;;9.10;99.90;;;;;;5096255;28;20444;-80
2023/10/28 02:20:04;;;;;;;0.30;0.30;;;9.10;99.90;;;;;;5096140;28;20940;-80
2023/10/28 02:22:32;;;;;;;0.30;0.30;;;9.10;99.90;;;;;;5096052;28;20942;-80
2023/10/28 02:24:58;;;;;;;0.40;0.30;;;9.10;99.90;;;;;;5095982;28;20845;-80
2023/10/28 02:27:26;;;;;;;0.30;0.23;;;9.20;99.90;;;;;;5096269;28;20460;-80
2023/10/28 02:29:54;;;;;;;0.50;0.50;;;9.20;99.90;;;;;;5095475;28;20448;-80
2023/10/28 02:32:21;;;;;;;0.50;0.20;;;9.20;99.90;;;;;;5096185;28;20444;-80
2023/10/28 02:34:48;;;;;;;0.40;0.30;;;9.20;99.90;;;;;;5096113;28;20819;-80
2023/10/28 02:37:15;;;;;;;0.43;0.40;;;9.20;99.90;;;;;;5096086;28;20439;-80
2023/10/28 02:39:42;;;;;;;0.60;0.50;;;9.30;99.90;;;;;;5096019;28;20504;-80
2023/10/28 02:42:08;;;;;;;0.60;0.40;;;9.20;99.90;;;;;;5095997;28;20450;-80
2023/10/28 02:44:36;;;;;;;0.33;0.30;;;9.30;99.90;;;;;;5095889;28;20464;-80
2023/10/28 02:47:05;;;;;;;0.30;0.30;;;9.30;99.90;;;;;;5095886;28;20531;-80
2023/10/28 02:49:31;;;;;;;2.00;0.57;;;9.30;99.90;;;;;;5095554;28;20476;-80
2023/10/28 02:51:58;;;;;;;0.30;0.30;;;9.30;99.90;;;;;;5095817;28;20447;-80
2023/10/28 02:54:25;;;;;;;0.40;0.40;;;9.30;99.90;;;;;;5095723;28;20517;-80
2023/10/28 02:56:52;;;;;;;0.40;0.37;;;9.30;99.90;;;;;;5095417;28;20955;-80
2023/10/28 02:59:19;;;;;;;2.50;0.40;;;9.30;99.90;;;;;;5095641;28;20509;-80
2023/10/28 03:01:46;;;;;;;1.70;0.47;;;9.30;99.90;;;;;;5095106;28;20482;-80
2023/10/28 03:04:15;;;;;;;1.03;0.30;;;9.40;99.90;;;;;;5095171;28;20875;-80
2023/10/28 03:06:42;;;;;;;1.27;0.40;;;9.40;99.90;;;;;;5095185;28;20983;-80
2023/10/28 03:09:09;;;;;;;0.40;0.30;;;9.40;99.90;;;;;;5095401;28;20492;-80
2023/10/28 03:11:37;;;;;;;0.40;0.30;;;9.40;99.90;;;;;;5095475;28;20534;-80
2023/10/28 03:14:04;;;;;;;0.40;0.30;;;9.40;99.90;;;;;;5095324;28;20468;-80
2023/10/28 03:16:31;;;;;;;0.30;0.30;;;9.40;99.90;;;;;;5095347;28;20534;-80
2023/10/28 03:18:57;;;;;;;0.30;0.30;;;9.40;99.90;;;;;;5095346;28;20450;-80
2023/10/28 03:21:25;;;;;;;0.30;0.30;;;9.50;99.90;;;;;;5094940;28;20451;-80
2023/10/28 03:23:52;;;;;;;0.30;0.30;;;9.50;99.90;;;;;;5095104;28;20475;-80
2023/10/28 03:26:19;;;;;;;0.70;0.40;;;9.50;99.90;;;;;;5095211;28;20443;-80
2023/10/28 03:28:46;;;;;;;0.30;0.30;;;9.50;99.90;;;;;;5094676;28;20490;-80
2023/10/28 03:31:14;;;;;;;0.40;0.30;;;9.50;99.90;;;;;;5095035;28;20451;-80
2023/10/28 03:33:42;;;;;;;0.30;0.30;;;9.50;99.90;;;;;;5094928;28;20550;-80
2023/10/28 03:36:09;;;;;;;0.30;0.30;;;9.50;99.90;;;;;;5094897;28;20570;-80
2023/10/28 03:38:38;;;;;;;7.67;0.40;;;9.50;99.90;;;;;;5094888;28;20472;-80
2023/10/28 03:41:07;;;;;;;0.50;0.50;;;9.50;99.90;;;;;;5094680;28;20448;-80
2023/10/28 03:43:34;;;;;;;0.37;0.33;;;9.50;99.90;;;;;;5094131;28;20980;-80
2023/10/28 03:46:00;;;;;;;0.40;0.30;;;9.60;99.90;;;;;;5094728;28;20522;-80
2023/10/28 03:48:27;;;;;;;0.30;0.30;;;9.50;99.90;;;;;;5094593;28;20484;-81
2023/10/28 03:50:58;;;;;;;0.30;0.30;;;9.50;99.90;;;;;;5094656;28;20440;-81
2023/10/28 03:53:25;;;;;;;0.77;0.30;;;9.50;99.90;;;;;;5094546;28;20468;-81
2023/10/28 03:55:53;;;;;;;0.37;0.27;;;9.60;99.90;;;;;;5094562;28;20447;-81
2023/10/28 03:58:20;;;;;;;0.97;0.43;;;9.60;99.90;;;;;;5094519;28;20440;-81
2023/10/28 04:00:50;;;;;;;0.30;0.30;;;9.60;99.90;;;;;;5094308;28;20444;-81
2023/10/28 04:03:17;;;;;;;1.13;0.30;;;9.60;99.90;;;;;;5094394;28;20460;-81
2023/10/28 04:05:43;;;;;;;0.83;0.50;;;9.60;99.90;;;;;;5094413;28;20442;-81
2023/10/28 04:08:10;;;;;;;0.50;0.40;;;9.60;99.90;;;;;;5094284;28;20494;-81
2023/10/28 04:10:37;;;;;;;0.40;0.30;;;9.60;99.90;;;;;;5094345;28;20470;-81
2023/10/28 04:13:05;;;;;;;0.50;0.30;;;9.50;99.90;;;;;;5094207;28;20463;-81
2023/10/28 04:15:32;;;;;;;0.30;0.20;;;9.50;99.90;;;;;;5093949;28;20822;-81
2023/10/28 04:17:59;;;;;;;0.73;0.30;;;9.50;99.90;;;;;;5093876;28;20940;-81
2023/10/28 04:20:26;;;;;;;0.33;0.33;;;9.50;99.90;;;;;;5094111;28;20444;-81
2023/10/28 04:22:52;;;;;;;0.37;0.30;;;9.40;99.90;;;;;;5093781;28;20807;-81
2023/10/28 04:25:19;;;;;;;0.80;0.40;;;9.40;99.90;;;;;;5093712;28;21019;-81
2023/10/28 04:27:46;;;;;;;0.30;0.30;;;9.40;99.90;;;;;;5093692;28;20450;-81
2023/10/28 04:30:14;;;;;;;1.23;0.60;;;9.30;99.90;;;;;;5094045;28;20483;-81
2023/10/28 04:32:42;;;;;;;0.30;0.30;;;9.30;99.90;;;;;;5093713;28;20436;-81
2023/10/28 04:35:10;;;;;;;17.00;0.50;;;9.20;99.90;;;;;;5093703;28;20543;-81
2023/10/28 04:37:37;;;;;;;0.50;0.37;;;9.20;99.90;;;;;;5093584;28;20432;-81
2023/10/28 04:40:05;;;;;;;2.00;0.50;;;9.20;99.90;;;;;;5093804;28;20444;-81
2023/10/28 04:42:32;;;;;;;0.30;0.30;;;9.20;99.90;;;;;;5093445;28;20501;-81
2023/10/28 04:44:58;;;;;;;0.40;0.30;;;9.20;99.90;;;;;;5093678;28;20464;-81
2023/10/28 04:47:27;;;;;;;0.30;0.30;;;9.20;99.90;;;;;;5093378;28;20937;-81
2023/10/28 04:49:53;;;;;;;11.50;0.40;;;9.10;99.90;;;;;;5093570;28;20480;-81
2023/10/28 04:52:21;;;;;;;0.87;0.40;;;9.10;99.90;;;;;;5093352;28;20444;-81
2023/10/28 04:54:48;;;;;;;0.40;0.30;;;9.10;99.90;;;;;;5093552;28;20471;-81
2023/10/28 04:57:14;;;;;;;0.87;0.47;;;9.20;99.90;;;;;;5093605;28;20539;-81
2023/10/28 04:59:41;;;;;;;2.30;0.60;;;9.20;99.90;;;;;;5093542;28;20444;-81
2023/10/28 05:02:08;;;;;;;0.40;0.30;;;9.20;99.90;;;;;;5093109;28;20479;-81
2023/10/28 05:04:37;;;;;;;0.40;0.30;;;9.10;99.90;;;;;;5093480;28;20529;-81
2023/10/28 05:07:05;;;;;;;0.30;0.20;;;9.10;99.90;;;;;;5093465;28;20440;-81
2023/10/28 05:09:31;;;;;;;0.40;0.40;;;9.20;99.90;;;;;;5093114;28;20871;-81
2023/10/28 05:12:00;;;;;;;0.40;0.30;;;9.20;99.90;;;;;;5093428;28;20455;-81
2023/10/28 05:14:27;;;;;;;0.37;0.33;;;9.10;99.90;;;;;;5093077;28;20638;-81
2023/10/28 05:16:54;;;;;;;0.30;0.30;;;9.10;99.90;;;;;;5093376;28;20489;-82
2023/10/28 05:19:22;;;;;;;0.30;0.20;;;9.10;99.90;;;;;;5093376;28;20522;-81
2023/10/28 05:21:50;;;;;;;1.13;0.30;;;9.10;99.90;;;;;;5093368;28;20446;-81
2023/10/28 05:24:17;;;;;;;0.30;0.30;;;9.10;99.90;;;;;;5093263;28;20464;-81
2023/10/28 05:26:44;;;;;;;0.40;0.40;;;9.10;99.90;;;;;;5093294;28;20458;-81
2023/10/28 05:29:11;;;;;;;0.70;0.40;;;9.10;99.90;;;;;;5093203;28;20540;-81
2023/10/28 05:31:38;;;;;;;0.77;0.40;;;9.10;99.90;;;;;;5093261;28;20454;-81
2023/10/28 05:34:04;;;;;;;0.30;0.30;;;9.10;99.90;;;;;;5093155;28;20868;-82
2023/10/28 05:36:31;;;;;;;0.30;0.30;;;9.10;99.90;;;;;;5092865;28;20448;-82
2023/10/28 05:39:00;;;;;;;0.37;0.37;;;9.00;99.90;;;;;;5093134;28;20440;-82
2023/10/28 05:41:26;;;;;;;0.50;0.30;;;9.10;99.90;;;;;;5093175;28;20899;-82
2023/10/28 05:43:54;;;;;;;0.40;0.30;;;9.10;99.90;;;;;;5093048;28;20830;-81
2023/10/28 05:46:22;;;;;;;0.30;0.20;;;9.10;99.90;;;;;;5093095;28;20486;-81
2023/10/28 05:48:50;;;;;;;0.40;0.30;;;9.10;99.90;;;;;;5092705;28;20475;-81
2023/10/28 05:51:17;;;;;;;0.30;0.30;;;9.10;99.90;;;;;;5092722;28;20835;-82
2023/10/28 05:53:43;;;;;;;1.43;0.40;;;9.10;99.90;;;;;;5092679;28;20472;-81
2023/10/28 05:56:12;;;;;;;0.53;0.53;;;9.10;99.90;;;;;;5093020;28;20452;-82
2023/10/28 05:58:38;;;;;;;2.50;0.30;;;9.10;99.90;;;;;;5092955;28;20440;-82
2023/10/28 06:01:05;;;;;;;0.30;0.20;;;9.10;99.90;;;;;;5092748;28;20475;-81
2023/10/28 06:03:32;;;;;;;0.30;0.30;;;9.20;99.90;;;;;;5092925;28;20554;-81
2023/10/28 06:05:59;;;;;;;0.40;0.30;;;9.20;99.90;;;;;;5095420;28;20814;-82
2023/10/28 06:08:26;;;;;;;0.70;0.40;;;9.20;99.90;;;;;;5096583;28;20443;-82
2023/10/28 06:10:53;;;;;;;0.30;0.30;;;9.20;99.90;;;;;;5096637;28;20467;-82
2023/10/28 06:13:21;;;;;;;0.30;0.30;;;9.30;99.90;;;;;;5096242;28;20468;-82
2023/10/28 06:15:48;;;;;;;0.40;0.30;;;9.30;99.90;;;;;;5096220;28;20941;-82
2023/10/28 06:18:19;;;;;;;2.93;1.07;;;9.30;99.90;;;;;;5096501;28;20443;-82
2023/10/28 06:20:47;;;;;;;0.47;0.40;;;9.30;99.90;;;;;;5096447;28;20432;-82
2023/10/28 06:23:15;;;;;;;0.30;0.20;;;9.40;99.90;;;;;;5096318;28;20532;-82
2023/10/28 06:25:41;;;;;;;2.30;0.40;;;9.40;99.90;;;;;;5097078;28;20842;-82
2023/10/28 06:28:10;;;;;;;0.60;0.40;;;9.50;99.90;;;;;;5096353;28;20432;-82
2023/10/28 06:30:46;;;;;;;0.40;0.30;;;9.50;99.90;;;;;;5096221;28;20483;-82
2023/10/28 06:33:13;;;;;;;0.30;0.30;;;9.50;99.90;;;;;;5096258;28;20516;-81
2023/10/28 06:35:40;;;;;;;0.30;0.30;;;9.40;99.90;;;;;;5096214;28;20448;-82
2023/10/28 06:38:07;;;;;;;0.40;0.30;;;9.50;99.90;;;;;;5095788;28;20941;-81
2023/10/28 06:40:34;;;;;;;0.30;0.20;;;9.50;99.90;;;;;;5096112;28;20436;-82
2023/10/28 06:43:01;;;;;;;0.40;0.30;;;9.40;99.90;;;;;;5095939;28;20444;-81
2023/10/28 06:45:28;;;;;;;0.63;0.40;;;9.50;99.90;;;;;;5095981;28;20444;-81
2023/10/28 06:47:56;;;;;;;0.60;0.50;;;9.60;99.90;;;;;;5095717;28;20454;-82
2023/10/28 06:50:23;;;;;;;0.30;0.30;;;9.60;99.90;;;;;;5095540;28;20988;-82
2023/10/28 06:52:50;;;;;;;0.60;0.30;;;9.60;99.90;;;;;;5095427;28;20937;-82
2023/10/28 06:55:17;;;;;;;0.37;0.30;;;9.60;99.90;;;;;;5095827;28;20833;-82
2023/10/28 06:57:44;;;;;;;0.30;0.30;;;9.70;99.90;;;;;;5095742;28;20444;-82
2023/10/28 07:00:13;;;;;;;1.33;0.30;;;9.70;99.90;;;;;;5095581;28;20796;-82
2023/10/28 07:02:40;;;;;;;0.30;0.20;;;9.80;99.90;;;;;;5095230;28;20976;-82
2023/10/28 07:05:09;;;;;;;0.30;0.27;;;9.90;99.90;;;;;;5095508;28;20556;-82
2023/10/28 07:07:36;;;;;;;0.60;0.57;;;10.00;99.90;;;;;;5095475;28;20493;-82
2023/10/28 07:10:03;;;;;;;0.40;0.40;;;10.10;99.90;;;;;;5095417;28;20490;-82
2023/10/28 07:12:30;;;;;;;0.37;0.30;;;10.20;99.90;;;;;;5095185;28;20932;-82
2023/10/28 07:14:58;;;;;;;0.40;0.40;;;10.20;99.90;;;;;;5095000;28;20984;-82
2023/10/28 07:17:24;;;;;;;0.30;0.30;;;10.30;99.90;;;;;;5094784;28;20448;-82
2023/10/28 07:19:52;;;;;;;0.50;0.40;;;10.30;99.90;;;;;;5095350;28;20421;-82
2023/10/28 07:22:21;;;;;;;0.47;0.40;;;10.20;99.90;;;;;;5095264;28;20448;-82
2023/10/28 07:24:47;;;;;;;0.40;0.40;;;10.20;99.90;;;;;;5095121;28;20464;-82
2023/10/28 07:27:14;;;;;;;0.40;0.30;;;10.30;99.90;;;;;;5094812;28;20448;-82
2023/10/28 07:29:41;;;;;;;0.40;0.30;;;10.30;99.90;;;;;;5095009;28;20468;-81
2023/10/28 07:32:09;;;;;;;0.30;0.30;;;10.30;99.90;;;;;;5094614;28;20429;-81
2023/10/28 07:34:36;;;;;;;3.90;0.40;;;10.20;99.90;;;;;;5094525;28;20495;-82
2023/10/28 07:37:04;;;;;;;0.30;0.30;;;10.20;99.90;;;;;;5094615;28;20932;-81
2023/10/28 07:39:32;;;;;;;0.40;0.30;;;10.10;99.90;;;;;;5094560;28;21002;-81
2023/10/28 07:41:59;;;;;;;0.50;0.40;;;10.20;99.90;;;;;;5094512;28;20543;-82
2023/10/28 07:44:26;;;;;;;1.40;0.40;;;10.30;99.90;;;;;;5094728;28;20468;-82
2023/10/28 07:46:53;;;;;;;0.40;0.30;;;10.20;99.90;;;;;;5094738;28;20440;-82
2023/10/28 07:49:20;;;;;;;2.77;0.60;;;10.30;99.90;;;;;;5094318;28;20486;-82
2023/10/28 07:51:47;;;;;;;0.60;0.40;;;10.40;99.90;;;;;;5094332;28;20976;-82
2023/10/28 07:54:14;;;;;;;2.97;0.40;;;10.50;99.90;;;;;;5094568;28;20483;-82
2023/10/28 07:56:43;;;;;;;0.63;0.43;;;10.70;99.90;;;;;;5094686;28;20819;-81
2023/10/28 07:59:10;;;;;;;2.20;0.40;;;10.80;99.90;;;;;;5094520;28;20521;-82
2023/10/28 08:01:39;;;;;;;4.50;0.60;;;10.90;99.90;;;;;;5093977;28;20480;-82
2023/10/28 08:04:06;;;;;;;0.77;0.40;;;10.90;99.90;;;;;;5094038;28;20992;-82
2023/10/28 08:06:34;;;;;;;1.13;0.50;;;10.90;99.90;;;;;;5094374;28;20447;-82
2023/10/28 08:09:04;;;;;;;0.40;0.30;;;10.80;99.90;;;;;;5094069;28;20501;-82
2023/10/28 08:11:31;;;;;;;0.50;0.47;;;10.90;99.90;;;;;;5094041;28;20905;-82
2023/10/28 08:14:00;;;;;;;0.80;0.30;;;10.90;99.90;;;;;;5093908;28;20455;-82
2023/10/28 08:16:26;;;;;;;0.40;0.30;;;11.00;99.90;;;;;;5094221;28;20440;-82
2023/10/28 08:18:54;;;;;;;0.30;0.30;;;11.00;99.90;;;;;;5094168;28;20435;-83
2023/10/28 08:21:21;;;;;;;0.30;0.30;;;11.10;99.90;;;;;;5094632;28;20443;-82
2023/10/28 08:23:49;;;;;;;8.73;0.70;;;11.00;99.90;;;;;;5094044;28;20471;-84
2023/10/28 08:26:18;;;;;;;0.40;0.40;;;11.10;99.90;;;;;;5094055;28;20439;-84
2023/10/28 08:28:44;;;;;;;0.40;0.40;;;11.20;99.90;;;;;;5093513;28;20517;-84
2023/10/28 08:31:12;;;;;;;1.07;0.50;;;11.30;99.90;;;;;;5093892;28;20480;-83
2023/10/28 08:33:41;;;;;;;0.60;0.50;;;11.50;99.90;;;;;;5093825;28;20460;-82
2023/10/28 08:36:09;;;;;;;0.40;0.40;;;11.70;99.90;;;;;;5093885;28;20487;-82
2023/10/28 08:38:36;;;;;;;0.40;0.30;;;11.90;99.90;;;;;;5093865;28;20535;-83
2023/10/28 08:41:04;;;;;;;1.00;0.30;;;12.00;99.90;;;;;;5093557;28;20937;-82
2023/10/28 08:43:34;;;;;;;0.40;0.30;;;12.10;99.90;;;;;;5093440;28;20478;-82
2023/10/28 08:46:04;;;;;;;0.70;0.40;;;12.10;99.90;;;;;;5094119;28;20477;-82
2023/10/28 08:48:33;;;;;;;0.90;0.43;;;12.00;99.90;;;;;;5093754;28;20455;-83
2023/10/28 08:51:01;;;;;;;0.30;0.30;;;11.90;99.90;;;;;;5093605;28;20475;-83
2023/10/28 08:53:28;;;;;;;0.50;0.40;;;11.90;99.90;;;;;;5093527;28;20466;-82
2023/10/28 08:56:00;;;;;;;0.40;0.40;;;12.00;99.90;;;;;;5093292;28;20813;-79
2023/10/28 08:58:28;;;;;;;0.40;0.40;;;12.00;99.90;;;;;;5093621;28;20844;-83
2023/10/28 09:00:59;;;;;;;0.40;0.40;;;12.10;99.90;;;;;;5093335;28;20519;-82
2023/10/28 09:03:27;;;;;;;1.30;0.43;;;12.20;99.90;;;;;;5093483;28;20475;-82
2023/10/28 09:05:55;;;;;;;0.40;0.30;;;12.50;99.90;;;;;;5093509;28;20813;-82
2023/10/28 09:08:23;;;;;;;0.50;0.40;;;13.10;99.90;;;;;;5093140;28;20455;-82
2023/10/28 09:10:50;;;;;;;1.00;0.40;;;13.50;99.90;;;;;;5093402;28;20570;-82
2023/10/28 09:13:17;;;;;;;8.10;0.60;;;13.60;99.90;;;;;;5093352;28;20452;-82
2023/10/28 09:15:44;;;;;;;0.43;0.43;;;13.60;99.90;;;;;;5093382;28;20466;-82
2023/10/28 09:18:11;;;;;;;0.40;0.40;;;13.50;99.90;;;;;;5093468;28;20440;-82
2023/10/28 09:20:40;;;;;;;1.17;0.40;;;13.30;99.90;;;;;;5093056;28;20447;-82
2023/10/28 09:23:08;;;;;;;0.57;0.30;;;13.10;99.90;;;;;;5093270;28;20468;-82
2023/10/28 09:25:36;;;;;;;6.90;0.40;;;13.00;99.90;;;;;;5092951;28;20444;-82
2023/10/28 09:28:07;;;;;;;0.43;0.43;;;12.80;99.90;;;;;;5092983;28;20440;-83
2023/10/28 09:30:44;;;;;;;7.80;0.50;;;12.90;99.90;;;;;;5092868;28;20497;-82
2023/10/28 09:33:12;;;;;;;0.40;0.37;;;13.80;99.90;;;;;;5092878;28;20460;-83
2023/10/28 09:35:41;;;;;;;0.60;0.40;;;14.70;99.90;;;;;;5092877;28;20440;-82
2023/10/28 09:38:11;;;;;;;0.50;0.50;;;15.40;99.90;;;;;;5092845;28;20444;-83
2023/10/28 09:40:38;;;;;;;0.40;0.40;;;16.10;99.90;;;;;;5096474;28;20527;-82
2023/10/28 09:43:06;;;;;;;0.50;0.40;;;16.30;99.90;;;;;;5097050;28;20460;-82
2023/10/28 09:45:33;;;;;;;0.50;0.50;;;16.40;99.90;;;;;;5096757;28;20445;-83
2023/10/28 09:48:01;;;;;;;0.40;0.30;;;16.40;99.90;;;;;;5097127;28;20451;-82
2023/10/28 09:50:31;;;;;;;3.70;0.60;;;16.60;99.90;;;;;;5096687;28;20467;-82
2023/10/28 09:52:59;;;;;;;0.50;0.40;;;16.40;99.90;;;;;;5096553;28;20424;-82
2023/10/28 09:55:31;;;;;;;0.50;0.40;;;16.40;99.90;;;;;;5096967;28;20466;-82
2023/10/28 09:58:16;;;;;;;0.50;0.50;;;16.70;99.90;;;;;;5096559;28;20531;-82
2023/10/28 10:00:46;;;;;;;1.87;0.33;;;17.40;99.90;;;;;;5096540;28;20464;-83
2023/10/28 10:03:39;;;;;;;0.40;0.33;;;18.10;99.90;;;;;;5098104;28;20471;-81
2023/10/28 10:06:07;;;;;;;0.40;0.30;;;18.20;99.90;;;;;;5096422;28;20446;-81
2023/10/28 10:08:36;;;;;;;0.50;0.40;;;17.90;99.90;;;;;;5096326;28;20807;-81
2023/10/28 10:11:07;;;;;;;0.60;0.40;;;17.50;99.90;;;;;;5096219;28;20533;-82
2023/10/28 10:13:43;;;;;;;0.50;0.50;;;17.10;99.90;;;;;;5096498;28;20464;-82
2023/10/28 10:16:19;;;;;;;0.40;0.30;;;16.80;99.90;;;;;;5096223;28;20925;-83
2023/10/28 10:18:50;;;;;;;0.70;0.40;;;16.30;99.90;;;;;;5096553;28;20420;-82
2023/10/28 10:21:19;;;;;;;0.83;0.50;;;16.20;99.90;;;;;;5096096;28;21014;-82
2023/10/28 10:23:50;;;;;;;4.73;0.50;;;16.00;99.90;;;;;;5095834;28;20466;-82
2023/10/28 10:26:22;;;;;;;1.03;0.40;;;15.90;99.90;;;;;;5096547;28;20428;-83
2023/10/28 10:28:51;;;;;;;0.50;0.40;;;15.80;99.90;;;;;;5096329;28;20758;-83
2023/10/28 10:31:19;;;;;;;1.03;0.80;;;15.40;99.90;;;;;;5095831;28;20476;-82
2023/10/28 10:33:46;;;;;;;0.33;0.30;;;15.20;99.90;;;;;;5096226;28;20467;-83
2023/10/28 10:36:17;;;;;;;0.40;0.30;;;15.00;99.90;;;;;;5095814;28;20937;-83
2023/10/28 10:38:45;;;;;;;1.37;0.30;;;14.80;99.90;;;;;;5095758;28;20944;-82
2023/10/28 10:41:13;;;;;;;2.33;0.40;;;14.70;99.90;;;;;;5095709;28;20451;-82
2023/10/28 10:43:41;;;;;;;0.40;0.40;;;14.50;99.90;;;;;;5095539;28;20842;-82
2023/10/28 10:46:07;;;;;;;2.30;0.40;;;14.40;99.90;;;;;;5095926;28;20431;-83
2023/10/28 10:48:34;;;;;;;1.47;0.33;;;14.40;99.90;;;;;;5095479;28;20444;-82
2023/10/28 10:51:02;;;;;;;0.40;0.40;;;14.30;99.90;;;;;;5094896;28;20574;-83
2023/10/28 10:53:29;;;;;;;0.60;0.40;;;14.40;99.90;;;;;;5095532;28;20489;-83
2023/10/28 10:55:55;;;;;;;3.60;0.50;;;14.20;99.90;;;;;;5095461;28;20944;-83
2023/10/28 10:58:22;;;;;;;3.23;0.40;;;14.20;99.90;;;;;;5095718;28;20444;-83
2023/10/28 11:00:55;;;;;;;0.50;0.47;;;14.10;99.90;;;;;;5095182;28;20448;-82
2023/10/28 11:03:24;;;;;;;3.33;0.50;;;13.90;99.90;;;;;;5095248;28;20472;-83
2023/10/28 11:05:52;;;;;;;0.50;0.30;;;13.90;99.90;;;;;;5095272;28;20458;-83
2023/10/28 11:08:19;;;;;;;0.40;0.30;;;13.80;99.90;;;;;;5095185;28;20444;-83
2023/10/28 11:10:46;;;;;;;1.10;0.70;;;13.80;99.90;;;;;;5095555;28;20876;-83
2023/10/28 11:13:13;;;;;;;0.60;0.40;;;13.80;99.90;;;;;;5095083;28;20463;-83
2023/10/28 11:15:40;;;;;;;1.77;0.40;;;14.00;99.90;;;;;;5095400;28;20451;-82
2023/10/28 11:18:08;;;;;;;0.30;0.30;;;14.10;99.90;;;;;;5095091;28;20439;-83
2023/10/28 11:20:34;;;;;;;0.40;0.40;;;14.20;99.90;;;;;;5095051;28;20446;-83
2023/10/28 11:23:02;;;;;;;0.77;0.37;;;14.20;99.90;;;;;;5095222;28;20439;-84
2023/10/28 11:25:33;;;;;;;0.60;0.40;;;14.30;99.90;;;;;;5094854;28;20539;-84
2023/10/28 11:28:06;;;;;;;0.97;0.40;;;14.20;99.90;;;;;;5094838;28;20444;-83
2023/10/28 11:30:32;;;;;;;0.87;0.47;;;14.20;99.90;;;;;;5094740;28;20471;-81
2023/10/28 11:32:59;;;;;;;0.30;0.30;;;14.20;99.90;;;;;;5094635;28;20450;-82
2023/10/28 11:35:33;;;;;;;0.40;0.40;;;14.20;99.90;;;;;;5094663;28;20455;-82
2023/10/28 11:38:00;;;;;;;0.40;0.40;;;14.20;99.90;;;;;;5094722;28;20432;-82
2023/10/28 11:40:27;;;;;;;1.40;0.40;;;14.20;99.90;;;;;;5094654;28;20439;-82
2023/10/28 11:42:54;;;;;;;0.50;0.30;;;14.20;99.90;;;;;;5094884;28;20439;-83
2023/10/28 11:45:21;;;;;;;17.60;1.57;;;14.10;99.90;;;;;;5094531;28;20432;-82
2023/10/28 11:47:48;;;;;;;0.33;0.30;;;14.10;99.90;;;;;;5094812;28;20543;-82
2023/10/28 11:50:15;;;;;;;6.90;0.70;;;14.10;99.90;;;;;;5094364;28;20447;-82
2023/10/28 11:52:43;;;;;;;1.00;0.37;;;13.90;99.90;;;;;;5094374;28;20432;-82
2023/10/28 11:55:10;;;;;;;1.57;0.90;;;13.70;99.90;;;;;;5094364;28;20493;-82
2023/10/28 11:57:37;;;;;;;3.43;0.90;;;13.70;99.90;;;;;;5094329;28;20424;-82
2023/10/28 12:00:05;;;;;;;2.00;0.40;;;13.50;99.90;;;;;;5094237;28;20450;-82
2023/10/28 12:02:32;;;;;;;0.90;0.60;;;13.30;99.90;;;;;;5093174;28;20537;-82
2023/10/28 12:04:59;;;;;;;2.67;0.50;;;13.10;99.90;;;;;;5094043;28;20466;-82
2023/10/28 12:07:26;;;;;;;0.77;0.40;;;13.10;99.90;;;;;;5094086;28;20455;-82
2023/10/28 12:09:54;;;;;;;5.50;0.50;;;13.00;99.90;;;;;;5094147;28;20435;-82
2023/10/28 12:12:21;;;;;;;0.50;0.40;;;13.00;99.90;;;;;;5096321;28;20560;-82
2023/10/28 12:14:48;;;;;;;4.70;0.97;;;13.00;99.90;;;;;;5093941;28;20456;-82
2023/10/28 12:17:15;;;;;;;0.40;0.30;;;13.00;99.90;;;;;;5094307;28;20519;-82
2023/10/28 12:19:42;;;;;;;0.60;0.33;;;13.10;99.90;;;;;;5094001;28;20538;-82
2023/10/28 12:22:09;;;;;;;0.87;0.40;;;13.20;99.90;;;;;;5093744;28;20446;-82
2023/10/28 12:24:36;;;;;;;0.50;0.40;;;13.30;99.90;;;;;;5094018;28;20464;-82
2023/10/28 12:27:05;;;;;;;0.40;0.40;;;13.40;99.90;;;;;;5094133;28;20431;-82
2023/10/28 12:29:31;;;;;;;0.93;0.53;;;13.50;99.90;;;;;;5094011;28;20444;-82
2023/10/28 12:31:58;;;;;;;1.10;0.50;;;13.50;99.90;;;;;;5093575;28;20480;-82
2023/10/28 12:34:25;;;;;;;0.90;0.30;;;13.60;99.90;;;;;;5093559;28;20834;-82
2023/10/28 12:36:52;;;;;;;2.87;0.90;;;13.60;99.90;;;;;;5093907;28;20809;-82
2023/10/28 12:39:20;;;;;;;0.90;0.43;;;13.40;99.90;;;;;;5093798;28;20447;-82
2023/10/28 12:41:47;;;;;;;0.43;0.43;;;13.20;99.90;;;;;;5093882;28;20482;-82
2023/10/28 12:44:15;;;;;;;0.70;0.40;;;13.10;99.90;;;;;;5093428;28;20998;-82
2023/10/28 12:46:42;;;;;;;2.20;0.60;;;13.10;99.90;;;;;;5094226;28;20513;-82
2023/10/28 12:49:09;;;;;;;0.40;0.40;;;13.10;99.90;;;;;;5093379;28;20944;-82
2023/10/28 12:51:36;;;;;;;0.43;0.43;;;13.10;99.90;;;;;;5093612;28;20491;-82
2023/10/28 12:54:04;;;;;;;1.33;0.50;;;13.10;99.90;;;;;;5093536;28;20471;-82